Flight Track Log - Related Links

Times and Time Zones

All times are in EST time to prevent confusion due to time zone crossing. See the UCA3597 flight status page for this flight to view local times or setup timezone preferences in your user account.

Time Position Orientation Groundspeed Altitude Reporting Facility
EST Latitude Longitude Course Direction KTS MPH feet Rate Location/Type
Fri 07:23:00 PM 39.9237 -77.0326 19° North  Level Estimated
Fri 07:24:00 PM 39.9811 -77.0070 19° North  Level Estimated
Fri 07:25:00 PM 40.0385 -76.9815 19° North  Level Estimated
Fri 07:26:00 PM 40.0958 -76.9559 19° North  Level Estimated
Fri 07:27:00 PM 40.1532 -76.9302 19° North  Level Estimated
Fri 07:28:00 PM 40.2105 -76.9045 19° North  Level Estimated
Fri 07:29:00 PM 40.2679 -76.8788 19° North  Level Estimated
Fri 07:30:00 PM 40.3252 -76.8530 19° North  Level Estimated
Fri 07:31:00 PM 40.3826 -76.8272 19° North  Level Estimated
Fri 07:32:00 PM 40.4399 -76.8014 19° North  Level Estimated
Fri 07:33:00 PM 40.4972 -76.7755 19° North  Level Estimated
Fri 07:34:00 PM 40.5546 -76.7495 19° North  Level Estimated
Fri 07:35:00 PM 40.6119 -76.7235 19° North  Level Estimated
Fri 07:36:00 PM 40.6692 -76.6975 19° North  Level Estimated
Fri 07:37:00 PM 40.7265 -76.6714 19° North  Level Estimated
Fri 07:38:00 PM 40.7838 -76.6452 19° North  Level Estimated
Fri 07:39:00 PM 40.8411 -76.6191 19° North  Level Estimated
Fri 07:40:00 PM 40.8984 -76.5928 19° North  Level Estimated
Fri 07:41:00 PM 40.9557 -76.5666 19° North  Level Estimated
Fri 07:42:00 PM 41.0129 -76.5403 19° North  Level Estimated
Fri 07:43:00 PM 41.0702 -76.5139 19° North  Level Estimated
Fri 07:44:00 PM 41.1274 -76.4875 19° North  Level Estimated
Fri 07:45:00 PM 41.1847 -76.4610 19° North  Level Estimated
Fri 07:46:00 PM 41.2420 -76.4345 19° North  Level Estimated
Fri 07:47:00 PM 41.2992 -76.4080 19° North  Level Estimated
Fri 07:48:00 PM 41.3564 -76.3814 19° North  Level Estimated
Fri 07:49:00 PM 41.4137 -76.3548 19° North  Level Estimated
Fri 07:50:00 PM 41.4709 -76.3281 19° North  Level Estimated
Fri 07:51:00 PM 41.5281 -76.3014 19° North  Level Estimated
Fri 07:52:00 PM 41.5853 -76.2746 19° North  Level Estimated
Fri 07:53:00 PM 41.6425 -76.2477 19° North  Level Estimated
Fri 07:54:00 PM 41.6997 -76.2209 19° North  Level Estimated
Fri 07:55:00 PM 41.7569 -76.1939 19° North  Level Estimated
Fri 07:56:00 PM 41.8141 -76.1670 19° North  Level Estimated
Fri 07:57:00 PM 41.8713 -76.1400 19° North  Level Estimated
Fri 07:58:00 PM 41.9285 -76.1129 19° North  Level Estimated
Fri 07:59:00 PM 41.9856 -76.0858 19° North  Level Estimated
Fri 08:00:00 PM 42.0428 -76.0586 19° North  Level Estimated
Fri 08:01:00 PM 42.1000 -76.0314 19° North  Level Estimated
Fri 08:02:00 PM 42.1571 -76.0041 19° North  Level Estimated
Fri 08:03:00 PM 42.2084 -75.9796 19° North  Level Estimated
Fri 08:04:00 PM 42.2084 -75.9796 35° Northeast  Level Estimated
Fri 08:05:00 PM 42.2084 -75.9796 35° Northeast  Level Estimated
Fri 08:06:00 PM 42.2084 -75.9796 35° Northeast  Level Estimated
Fri 08:07:00 PM 42.2084 -75.9796 35° Northeast  Level Estimated
Fri 08:08:00 PM 42.2084 -75.9796 35° Northeast  Level Estimated
Fri 08:09:00 PM 42.2084 -75.9796 35° Northeast  Level Estimated
Fri 08:10:00 PM 42.2084 -75.9796 35° Northeast  Level Estimated
Fri 08:11:00 PM 42.2084 -75.9796 35° Northeast  Level Estimated
Fri 08:12:00 PM 42.2084 -75.9796 35° Northeast  Level Estimated
Fri 08:13:00 PM 42.2084 -75.9796 35° Northeast  Level Estimated
Fri 08:14:00 PM 42.2084 -75.9796 35° Northeast  Level Estimated

Login

Don't have an account? Register now (free) for customized features, flight alerts, and more!